SpazioLink.com il tuo mini portale

Terremoti in Italia, posizione geografica

Spaziolink il MiniPortale

Home Sfondi Screenmates SuperEnalotto Posizione navi Terremoti Calendario feste Barzellette Frasi utili Giochi Meteo Gifs Software Ricerca
Lista dei terremoti in Italia in tempo reale dopo l'elaborazione dei valori rilevati dai sensori dislocati nelle zone interessate, comprendenti gli eventi sismici di elevata magnitudo sull'intero globo, per visualizzare la posizione dell'epicentro su Google Maps cliccare sul nome del luogo evidenziato in blu.
DATA ORA MAG ≥ 2 ZONA REGIONE LAT LONG PROF km
21/06/2021 02:12:33 ML 2.2 5 km nord-est Motteggiana (MN) Lombardia 45.05 10.82 22.9
21/06/2021 00:54:59 ML 4.0 Greece Mondo 39.54 21.98 17.2
20/06/2021 19:05:48 Mwp 6.5 Kermadec Islands, New Zealand (Sea: New Zealand) Mondo -29.98 -177.76 6.2
20/06/2021 08:20:49 ML 2.4 Adriatico Centrale (MARE) Mare 42.70 16.10 11.1
20/06/2021 04:40:22 ML 2.0 9 km a sud di Berceto (PR) Emilia Romagna 44.43 9.97 9.1
20/06/2021 02:56:51 ML 2.0 2 km a sud-ovest di Ariccia (RM) Lazio 41.71 12.65 11.8
19/06/2021 14:42:58 ML 2.8 Adriatico Centrale (MARE) Mare 42.74 16.17 11.1
19/06/2021 12:10:35 ML 2.1 1 km a ovest di Cerreto di Spoleto (PG) Umbria 42.82 12.91 10.7
19/06/2021 09:35:33 ML 2.3 Adriatico Centrale (MARE) Mare 42.64 16.10 10.1
19/06/2021 08:25:19 ML 2.8 Adriatico Centrale (MARE) Mare 42.60 16.34 11.0
19/06/2021 02:56:32 ML 2.4 3 km a sud-ovest di Amato (CZ) Calabria 38.93 16.44 15.2
19/06/2021 01:41:13 ML 2.2 Adriatico Centrale (MARE) Mare 42.62 15.85 11.2
18/06/2021 23:06:22 ML 2.8 Adriatico Centrale (MARE) Mare 42.60 16.35 3.4
18/06/2021 21:46:05 ML 2.5 5 km a sud-ovest di Campello sul Clitunno (PG) Umbria 42.79 12.73 8.0
18/06/2021 00:25:41 ML 2.1 Mar Ionio Meridionale (MARE) Mare 37.54 16.42 25.2
17/06/2021 21:42:52 ML 2.7 Adriatico Centrale (MARE) Mare 42.36 16.05 9.1
17/06/2021 07:34:38 ML 2.0 Costa Siciliana nord-orientale (Messina) Mare 38.18 15.09 9.2
17/06/2021 06:31:14 ML 2.3 Costa Siciliana nord-orientale (Messina) Mare 38.18 15.10 10.6
16/06/2021 21:59:01 ML 2.1 Costa Siciliana centro-settentrionale (Palermo) Mare 38.33 12.95 2.7
16/06/2021 19:14:04 ML 2.0 4 km a sud di Accumoli (RI) Lazio 42.66 13.23 14.8
16/06/2021 18:24:24 ML 2.2 Costa Siciliana nord-orientale (Messina) Mare 38.18 15.09 9.5
16/06/2021 14:59:32 ML 2.0 Costa Siciliana nord-orientale (Messina) Mare 38.18 15.09 9.8
16/06/2021 14:31:43 ML 2.2 Costa Siciliana nord-orientale (Messina) Mare 38.19 15.11 8.9
16/06/2021 14:25:42 ML 2.2 Costa Siciliana nord-orientale (Messina) Mare 38.19 15.11 10.4
16/06/2021 13:26:13 ML 2.0 Costa Siciliana nord-orientale (Messina) Mare 38.18 15.11 10.3
16/06/2021 13:10:53 ML 2.3 Costa Siciliana nord-orientale (Messina) Mare 38.19 15.12 6.9
16/06/2021 13:10:07 ML 2.1 Costa Siciliana nord-orientale (Messina) Mare 38.17 15.12 8.6
16/06/2021 13:07:42 ML 2.3 Costa Siciliana nord-orientale (Messina) Mare 38.18 15.11 10.2
16/06/2021 12:59:17 ML 2.2 Costa Siciliana nord-orientale (Messina) Mare 38.19 15.11 9.0
16/06/2021 11:15:36 ML 3.1 Costa Siciliana nord-orientale (Messina) Mare 38.19 15.11 7.1
16/06/2021 11:12:03 ML 2.1 Costa Siciliana nord-orientale (Messina) Mare 38.18 15.09 10.8
16/06/2021 10:37:37 ML 2.3 Costa Siciliana nord-orientale (Messina) Mare 38.19 15.09 7.2
16/06/2021 10:28:34 ML 2.3 Costa Siciliana nord-orientale (Messina) Mare 38.18 15.09 7.9
16/06/2021 10:27:45 ML 2.0 Costa Siciliana nord-orientale (Messina) Mare 38.18 15.09 9.6
16/06/2021 10:26:35 ML 2.1 Costa Siciliana nord-orientale (Messina) Mare 38.18 15.09 9.9
16/06/2021 10:25:07 ML 2.0 Costa Siciliana nord-orientale (Messina) Mare 38.18 15.09 10.5
16/06/2021 10:24:15 ML 2.0 Costa Siciliana nord-orientale (Messina) Mare 38.18 15.09 10.7
16/06/2021 10:18:56 ML 2.0 Costa Siciliana nord-orientale (Messina) Mare 38.18 15.09 10.5
16/06/2021 10:03:05 ML 2.4 Costa Siciliana nord-orientale (Messina) Mare 38.17 15.09 9.1
16/06/2021 06:43:09 Mwp 6.1 Seram, Indonesia (Sea: Indonesia) Mondo -3.55 129.52 19.5
16/06/2021 05:29:30 ML 2.1 4 km a sud-est di Pietralunga (PG) Umbria 43.41 12.47 7.7
15/06/2021 23:21:03 ML 2.3 Adriatico Centrale (MARE) Mare 42.09 16.74 11.1
15/06/2021 13:02:30 ML 2.2 Confine Slovenia-Croazia (SLOVENIA, CROAZIA) Mondo 45.44 14.54 11.1
15/06/2021 01:01:53 ML 2.0 4 km a sud-est di Montegallo (AP) Marche 42.81 13.35 20.8
14/06/2021 22:30:06 ML 2.4 Confine Austria-Germania (AUSTRIA, GERMANIA) Mondo 47.27 10.99 10.0
14/06/2021 18:04:08 ML 2.4 Costa Francese (FRANCIA) Mare 42.93 6.33 14.5
14/06/2021 14:46:31 ML 4.1 Confine Grecia-Albania (GRECIA, ALBANIA) Mondo 39.73 20.34 10.0
14/06/2021 14:30:14 ML 2.4 3 km a ovest di Citerna (PG) Umbria 43.51 12.08 7.3
14/06/2021 08:31:19 ML 3.0 6 km a est di Eraclea (VE) Mondo 45.58 12.76 31.3
14/06/2021 05:39:03 ML 2.1 3 km a nord di Pignola (PZ) Basilicata 40.60 15.80 17.9
14/06/2021 05:31:37 ML 2.2 5 km a sud-ovest di Fiastra (MC) Marche 43.00 13.14 12.0
14/06/2021 04:12:40 ML 2.1 Goro (FE) Emilia Romagna 44.86 12.30 6.8
Locations of visitors to this page (counting)
- subnet mask - partners - ipcheck - favicon - speedtest - canale youtube - programmone